sensor_id;sensor_type;location;lat;lon;timestamp;P1;durP1;ratioP1;P2;durP2;ratioP2
22254;SDS011;11296;42.684;23.322;2022-07-25T00:01:43;15.80;;;14.27;;
22254;SDS011;11296;42.684;23.322;2022-07-25T00:04:09;14.88;;;13.50;;
22254;SDS011;11296;42.684;23.322;2022-07-25T00:06:39;15.25;;;13.85;;
22254;SDS011;11296;42.684;23.322;2022-07-25T00:09:06;15.45;;;14.15;;
22254;SDS011;11296;42.684;23.322;2022-07-25T00:11:31;16.05;;;14.70;;
22254;SDS011;11296;42.684;23.322;2022-07-25T00:13:57;15.68;;;14.18;;
22254;SDS011;11296;42.684;23.322;2022-07-25T00:16:23;15.97;;;14.43;;
22254;SDS011;11296;42.684;23.322;2022-07-25T00:18:49;15.88;;;14.50;;
22254;SDS011;11296;42.684;23.322;2022-07-25T00:21:14;15.48;;;13.88;;
22254;SDS011;11296;42.684;23.322;2022-07-25T00:23:40;15.23;;;13.90;;
22254;SDS011;11296;42.684;23.322;2022-07-25T00:26:06;14.95;;;13.73;;
22254;SDS011;11296;42.684;23.322;2022-07-25T00:28:32;15.20;;;13.77;;
22254;SDS011;11296;42.684;23.322;2022-07-25T00:30:58;15.85;;;14.55;;
22254;SDS011;11296;42.684;23.322;2022-07-25T00:33:23;15.23;;;13.93;;
22254;SDS011;11296;42.684;23.322;2022-07-25T00:35:49;14.38;;;13.15;;
22254;SDS011;11296;42.684;23.322;2022-07-25T00:38:15;15.40;;;13.90;;
22254;SDS011;11296;42.684;23.322;2022-07-25T00:40:41;14.98;;;13.15;;
22254;SDS011;11296;42.684;23.322;2022-07-25T00:43:06;15.30;;;13.88;;
22254;SDS011;11296;42.684;23.322;2022-07-25T00:45:32;15.52;;;13.93;;
22254;SDS011;11296;42.684;23.322;2022-07-25T00:47:58;13.10;;;11.80;;
22254;SDS011;11296;42.684;23.322;2022-07-25T00:50:23;14.18;;;12.98;;
22254;SDS011;11296;42.684;23.322;2022-07-25T00:52:49;16.25;;;12.65;;
22254;SDS011;11296;42.684;23.322;2022-07-25T00:55:16;12.50;;;11.45;;
22254;SDS011;11296;42.684;23.322;2022-07-25T00:57:41;16.40;;;12.35;;
22254;SDS011;11296;42.684;23.322;2022-07-25T01:00:08;13.07;;;11.98;;
22254;SDS011;11296;42.684;23.322;2022-07-25T01:02:37;13.30;;;12.05;;
22254;SDS011;11296;42.684;23.322;2022-07-25T01:05:03;13.88;;;12.48;;
22254;SDS011;11296;42.684;23.322;2022-07-25T01:07:32;12.73;;;11.52;;
22254;SDS011;11296;42.684;23.322;2022-07-25T01:09:58;12.98;;;11.77;;
22254;SDS011;11296;42.684;23.322;2022-07-25T01:12:24;13.40;;;12.27;;
22254;SDS011;11296;42.684;23.322;2022-07-25T01:14:51;13.80;;;12.38;;
22254;SDS011;11296;42.684;23.322;2022-07-25T01:17:17;13.05;;;11.88;;
22254;SDS011;11296;42.684;23.322;2022-07-25T01:19:42;13.35;;;12.07;;
22254;SDS011;11296;42.684;23.322;2022-07-25T01:22:08;13.45;;;12.27;;
22254;SDS011;11296;42.684;23.322;2022-07-25T01:24:34;13.13;;;12.02;;
22254;SDS011;11296;42.684;23.322;2022-07-25T01:27:00;13.40;;;12.20;;
22254;SDS011;11296;42.684;23.322;2022-07-25T01:29:27;13.00;;;11.50;;
22254;SDS011;11296;42.684;23.322;2022-07-25T01:31:53;13.25;;;11.88;;
22254;SDS011;11296;42.684;23.322;2022-07-25T01:34:19;13.52;;;12.25;;
22254;SDS011;11296;42.684;23.322;2022-07-25T01:36:44;13.68;;;12.50;;
22254;SDS011;11296;42.684;23.322;2022-07-25T01:39:10;13.30;;;12.10;;
22254;SDS011;11296;42.684;23.322;2022-07-25T01:41:36;13.70;;;12.30;;
22254;SDS011;11296;42.684;23.322;2022-07-25T01:44:02;14.30;;;12.75;;
22254;SDS011;11296;42.684;23.322;2022-07-25T01:46:27;13.20;;;12.10;;
22254;SDS011;11296;42.684;23.322;2022-07-25T01:48:53;13.20;;;12.10;;
22254;SDS011;11296;42.684;23.322;2022-07-25T01:51:19;13.35;;;12.15;;
22254;SDS011;11296;42.684;23.322;2022-07-25T01:53:45;13.20;;;12.10;;
22254;SDS011;11296;42.684;23.322;2022-07-25T01:56:10;12.50;;;11.38;;
22254;SDS011;11296;42.684;23.322;2022-07-25T01:58:36;12.73;;;11.70;;
22254;SDS011;11296;42.684;23.322;2022-07-25T02:01:02;12.60;;;11.50;;
22254;SDS011;11296;42.684;23.322;2022-07-25T02:03:28;13.23;;;11.95;;
22254;SDS011;11296;42.684;23.322;2022-07-25T02:05:54;13.77;;;12.55;;
22254;SDS011;11296;42.684;23.322;2022-07-25T02:08:20;12.77;;;11.50;;
22254;SDS011;11296;42.684;23.322;2022-07-25T02:10:46;13.95;;;12.50;;
22254;SDS011;11296;42.684;23.322;2022-07-25T02:13:11;14.27;;;12.98;;
22254;SDS011;11296;42.684;23.322;2022-07-25T02:15:37;13.77;;;12.38;;
22254;SDS011;11296;42.684;23.322;2022-07-25T02:18:04;13.25;;;11.85;;
22254;SDS011;11296;42.684;23.322;2022-07-25T02:20:29;13.77;;;12.25;;
22254;SDS011;11296;42.684;23.322;2022-07-25T02:22:56;14.33;;;12.70;;
22254;SDS011;11296;42.684;23.322;2022-07-25T02:25:22;13.60;;;12.50;;
22254;SDS011;11296;42.684;23.322;2022-07-25T02:27:50;14.20;;;12.57;;
22254;SDS011;11296;42.684;23.322;2022-07-25T02:30:16;19.80;;;14.00;;
22254;SDS011;11296;42.684;23.322;2022-07-25T02:32:41;14.37;;;12.93;;
22254;SDS011;11296;42.684;23.322;2022-07-25T02:35:07;15.20;;;13.47;;
22254;SDS011;11296;42.684;23.322;2022-07-25T02:37:33;15.90;;;14.40;;
22254;SDS011;11296;42.684;23.322;2022-07-25T02:39:59;14.33;;;13.03;;
22254;SDS011;11296;42.684;23.322;2022-07-25T02:42:25;15.73;;;13.87;;
22254;SDS011;11296;42.684;23.322;2022-07-25T02:44:51;14.77;;;13.43;;
22254;SDS011;11296;42.684;23.322;2022-07-25T02:47:17;15.17;;;13.57;;
22254;SDS011;11296;42.684;23.322;2022-07-25T02:49:42;14.80;;;13.37;;
22254;SDS011;11296;42.684;23.322;2022-07-25T02:52:08;13.87;;;12.77;;
22254;SDS011;11296;42.684;23.322;2022-07-25T02:54:34;14.83;;;13.33;;
22254;SDS011;11296;42.684;23.322;2022-07-25T02:56:59;15.20;;;12.77;;
22254;SDS011;11296;42.684;23.322;2022-07-25T02:59:25;14.23;;;12.87;;
22254;SDS011;11296;42.684;23.322;2022-07-25T03:01:50;14.37;;;13.07;;
22254;SDS011;11296;42.684;23.322;2022-07-25T03:04:16;13.83;;;12.43;;
22254;SDS011;11296;42.684;23.322;2022-07-25T03:06:42;13.77;;;12.37;;
22254;SDS011;11296;42.684;23.322;2022-07-25T03:09:07;13.83;;;12.63;;
22254;SDS011;11296;42.684;23.322;2022-07-25T03:11:33;13.80;;;12.40;;
22254;SDS011;11296;42.684;23.322;2022-07-25T03:13:59;13.90;;;12.60;;
22254;SDS011;11296;42.684;23.322;2022-07-25T03:16:25;13.43;;;12.07;;
22254;SDS011;11296;42.684;23.322;2022-07-25T03:18:51;13.53;;;12.03;;
22254;SDS011;11296;42.684;23.322;2022-07-25T03:21:17;13.83;;;12.37;;
22254;SDS011;11296;42.684;23.322;2022-07-25T03:23:43;14.60;;;13.20;;
22254;SDS011;11296;42.684;23.322;2022-07-25T03:26:08;12.67;;;11.57;;
22254;SDS011;11296;42.684;23.322;2022-07-25T03:28:34;12.70;;;11.70;;
22254;SDS011;11296;42.684;23.322;2022-07-25T03:31:01;13.93;;;12.37;;
22254;SDS011;11296;42.684;23.322;2022-07-25T03:33:27;13.33;;;12.13;;
22254;SDS011;11296;42.684;23.322;2022-07-25T03:35:53;13.30;;;11.93;;
22254;SDS011;11296;42.684;23.322;2022-07-25T03:38:20;12.93;;;11.63;;
22254;SDS011;11296;42.684;23.322;2022-07-25T03:40:46;12.43;;;10.90;;
22254;SDS011;11296;42.684;23.322;2022-07-25T03:43:12;12.70;;;11.53;;
22254;SDS011;11296;42.684;23.322;2022-07-25T03:45:37;12.93;;;11.57;;
22254;SDS011;11296;42.684;23.322;2022-07-25T03:48:03;12.23;;;11.10;;
22254;SDS011;11296;42.684;23.322;2022-07-25T03:50:29;12.47;;;10.57;;
22254;SDS011;11296;42.684;23.322;2022-07-25T03:52:54;12.80;;;11.60;;
22254;SDS011;11296;42.684;23.322;2022-07-25T03:55:20;12.13;;;10.93;;
22254;SDS011;11296;42.684;23.322;2022-07-25T03:57:46;11.87;;;10.80;;
22254;SDS011;11296;42.684;23.322;2022-07-25T04:00:17;13.23;;;11.93;;
22254;SDS011;11296;42.684;23.322;2022-07-25T04:02:46;11.90;;;10.90;;
22254;SDS011;11296;42.684;23.322;2022-07-25T04:05:11;12.80;;;11.53;;
22254;SDS011;11296;42.684;23.322;2022-07-25T04:07:37;12.77;;;11.57;;
22254;SDS011;11296;42.684;23.322;2022-07-25T04:10:04;11.83;;;10.63;;
22254;SDS011;11296;42.684;23.322;2022-07-25T04:12:30;12.90;;;11.70;;
22254;SDS011;11296;42.684;23.322;2022-07-25T04:14:56;12.53;;;11.23;;
22254;SDS011;11296;42.684;23.322;2022-07-25T04:17:22;13.20;;;10.73;;
22254;SDS011;11296;42.684;23.322;2022-07-25T04:19:48;12.90;;;11.20;;
22254;SDS011;11296;42.684;23.322;2022-07-25T04:22:13;13.40;;;11.13;;
22254;SDS011;11296;42.684;23.322;2022-07-25T04:24:39;12.13;;;10.93;;
22254;SDS011;11296;42.684;23.322;2022-07-25T04:27:05;11.80;;;10.80;;
22254;SDS011;11296;42.684;23.322;2022-07-25T04:29:30;11.27;;;10.37;;
22254;SDS011;11296;42.684;23.322;2022-07-25T04:31:56;11.20;;;10.17;;
22254;SDS011;11296;42.684;23.322;2022-07-25T04:34:22;11.43;;;10.33;;
22254;SDS011;11296;42.684;23.322;2022-07-25T04:36:48;11.17;;;10.17;;
22254;SDS011;11296;42.684;23.322;2022-07-25T04:39:13;11.90;;;10.70;;
22254;SDS011;11296;42.684;23.322;2022-07-25T04:41:39;10.90;;;10.00;;
22254;SDS011;11296;42.684;23.322;2022-07-25T04:44:05;10.90;;;9.90;;
22254;SDS011;11296;42.684;23.322;2022-07-25T04:46:32;12.07;;;10.53;;
22254;SDS011;11296;42.684;23.322;2022-07-25T04:48:57;11.00;;;9.90;;
22254;SDS011;11296;42.684;23.322;2022-07-25T04:51:23;11.33;;;10.13;;
22254;SDS011;11296;42.684;23.322;2022-07-25T04:53:48;11.10;;;10.00;;
22254;SDS011;11296;42.684;23.322;2022-07-25T04:56:28;11.03;;;9.90;;
22254;SDS011;11296;42.684;23.322;2022-07-25T04:58:54;11.00;;;10.00;;
22254;SDS011;11296;42.684;23.322;2022-07-25T05:01:21;10.33;;;9.40;;
22254;SDS011;11296;42.684;23.322;2022-07-25T05:03:46;10.80;;;9.67;;
22254;SDS011;11296;42.684;23.322;2022-07-25T05:06:12;11.87;;;10.10;;
22254;SDS011;11296;42.684;23.322;2022-07-25T05:08:38;9.97;;;9.07;;
22254;SDS011;11296;42.684;23.322;2022-07-25T05:11:03;10.37;;;9.37;;
22254;SDS011;11296;42.684;23.322;2022-07-25T05:13:29;11.33;;;9.03;;
22254;SDS011;11296;42.684;23.322;2022-07-25T05:15:55;10.93;;;9.97;;
22254;SDS011;11296;42.684;23.322;2022-07-25T05:18:20;10.07;;;9.10;;
22254;SDS011;11296;42.684;23.322;2022-07-25T05:20:46;10.23;;;9.23;;
22254;SDS011;11296;42.684;23.322;2022-07-25T05:23:12;10.80;;;9.80;;
22254;SDS011;11296;42.684;23.322;2022-07-25T05:25:37;10.27;;;9.23;;
22254;SDS011;11296;42.684;23.322;2022-07-25T05:28:03;11.80;;;9.27;;
22254;SDS011;11296;42.684;23.322;2022-07-25T05:30:29;12.10;;;9.48;;
22254;SDS011;11296;42.684;23.322;2022-07-25T05:32:54;10.00;;;9.00;;
22254;SDS011;11296;42.684;23.322;2022-07-25T05:35:20;10.40;;;9.40;;
22254;SDS011;11296;42.684;23.322;2022-07-25T05:37:46;10.43;;;9.32;;
22254;SDS011;11296;42.684;23.322;2022-07-25T05:40:12;11.35;;;9.52;;
22254;SDS011;11296;42.684;23.322;2022-07-25T05:42:40;10.05;;;9.02;;
22254;SDS011;11296;42.684;23.322;2022-07-25T05:45:06;11.13;;;10.05;;
22254;SDS011;11296;42.684;23.322;2022-07-25T05:47:32;10.30;;;9.20;;
22254;SDS011;11296;42.684;23.322;2022-07-25T05:49:58;11.57;;;9.85;;
22254;SDS011;11296;42.684;23.322;2022-07-25T05:52:24;10.57;;;9.57;;
22254;SDS011;11296;42.684;23.322;2022-07-25T05:55:08;10.13;;;9.13;;
22254;SDS011;11296;42.684;23.322;2022-07-25T05:57:34;10.00;;;8.95;;
22254;SDS011;11296;42.684;23.322;2022-07-25T06:00:01;9.55;;;8.73;;
22254;SDS011;11296;42.684;23.322;2022-07-25T06:02:29;9.88;;;8.95;;
22254;SDS011;11296;42.684;23.322;2022-07-25T06:05:02;10.57;;;9.43;;
22254;SDS011;11296;42.684;23.322;2022-07-25T06:07:28;12.63;;;9.30;;
22254;SDS011;11296;42.684;23.322;2022-07-25T06:09:54;10.65;;;9.30;;
22254;SDS011;11296;42.684;23.322;2022-07-25T06:12:20;10.05;;;9.15;;
22254;SDS011;11296;42.684;23.322;2022-07-25T06:14:46;10.27;;;9.20;;
22254;SDS011;11296;42.684;23.322;2022-07-25T06:17:12;9.80;;;8.98;;
22254;SDS011;11296;42.684;23.322;2022-07-25T06:19:37;9.68;;;8.75;;
22254;SDS011;11296;42.684;23.322;2022-07-25T06:22:03;10.18;;;9.20;;
22254;SDS011;11296;42.684;23.322;2022-07-25T06:24:29;10.75;;;9.63;;
22254;SDS011;11296;42.684;23.322;2022-07-25T06:26:57;11.63;;;9.23;;
22254;SDS011;11296;42.684;23.322;2022-07-25T06:29:22;9.88;;;9.05;;
22254;SDS011;11296;42.684;23.322;2022-07-25T06:31:48;10.23;;;9.23;;
22254;SDS011;11296;42.684;23.322;2022-07-25T06:34:14;10.55;;;9.55;;
22254;SDS011;11296;42.684;23.322;2022-07-25T06:36:40;10.73;;;9.73;;
22254;SDS011;11296;42.684;23.322;2022-07-25T06:39:08;9.68;;;8.77;;
22254;SDS011;11296;42.684;23.322;2022-07-25T06:41:35;10.45;;;9.45;;
22254;SDS011;11296;42.684;23.322;2022-07-25T06:44:01;10.85;;;9.80;;
22254;SDS011;11296;42.684;23.322;2022-07-25T06:46:27;10.80;;;9.82;;
22254;SDS011;11296;42.684;23.322;2022-07-25T06:48:55;10.48;;;9.32;;
22254;SDS011;11296;42.684;23.322;2022-07-25T06:51:21;11.13;;;9.95;;
22254;SDS011;11296;42.684;23.322;2022-07-25T06:53:47;10.77;;;9.73;;
22254;SDS011;11296;42.684;23.322;2022-07-25T06:56:13;10.90;;;9.88;;
22254;SDS011;11296;42.684;23.322;2022-07-25T06:58:44;11.15;;;9.75;;
22254;SDS011;11296;42.684;23.322;2022-07-25T07:01:21;11.20;;;10.00;;
22254;SDS011;11296;42.684;23.322;2022-07-25T07:03:47;10.48;;;9.38;;
22254;SDS011;11296;42.684;23.322;2022-07-25T07:06:13;10.68;;;9.55;;
22254;SDS011;11296;42.684;23.322;2022-07-25T07:08:38;10.10;;;9.25;;
22254;SDS011;11296;42.684;23.322;2022-07-25T07:11:04;10.85;;;9.82;;
22254;SDS011;11296;42.684;23.322;2022-07-25T07:13:31;10.20;;;9.20;;
22254;SDS011;11296;42.684;23.322;2022-07-25T07:16:05;10.80;;;9.70;;
22254;SDS011;11296;42.684;23.322;2022-07-25T07:18:31;12.73;;;9.90;;
22254;SDS011;11296;42.684;23.322;2022-07-25T07:20:57;12.25;;;11.07;;
22254;SDS011;11296;42.684;23.322;2022-07-25T07:23:22;10.90;;;9.80;;
22254;SDS011;11296;42.684;23.322;2022-07-25T07:25:48;10.65;;;9.65;;
22254;SDS011;11296;42.684;23.322;2022-07-25T07:28:14;12.57;;;9.65;;
22254;SDS011;11296;42.684;23.322;2022-07-25T07:30:42;10.10;;;9.13;;
22254;SDS011;11296;42.684;23.322;2022-07-25T07:33:07;10.63;;;9.60;;
22254;SDS011;11296;42.684;23.322;2022-07-25T07:35:33;10.75;;;9.68;;
22254;SDS011;11296;42.684;23.322;2022-07-25T07:37:59;10.63;;;9.63;;
22254;SDS011;11296;42.684;23.322;2022-07-25T07:40:24;11.05;;;9.95;;
22254;SDS011;11296;42.684;23.322;2022-07-25T07:42:56;12.98;;;9.82;;
22254;SDS011;11296;42.684;23.322;2022-07-25T07:45:25;9.98;;;9.07;;
22254;SDS011;11296;42.684;23.322;2022-07-25T07:47:51;10.98;;;9.88;;
22254;SDS011;11296;42.684;23.322;2022-07-25T07:50:19;10.60;;;9.60;;
22254;SDS011;11296;42.684;23.322;2022-07-25T07:52:46;11.02;;;10.07;;
22254;SDS011;11296;42.684;23.322;2022-07-25T07:55:12;9.93;;;9.13;;
22254;SDS011;11296;42.684;23.322;2022-07-25T07:57:58;10.32;;;9.35;;
22254;SDS011;11296;42.684;23.322;2022-07-25T08:00:24;10.65;;;9.75;;
22254;SDS011;11296;42.684;23.322;2022-07-25T08:02:53;10.45;;;9.52;;
22254;SDS011;11296;42.684;23.322;2022-07-25T08:05:29;9.93;;;9.13;;
22254;SDS011;11296;42.684;23.322;2022-07-25T08:07:56;11.02;;;10.02;;
22254;SDS011;11296;42.684;23.322;2022-07-25T08:10:23;10.13;;;9.23;;
22254;SDS011;11296;42.684;23.322;2022-07-25T08:12:51;11.68;;;10.57;;
22254;SDS011;11296;42.684;23.322;2022-07-25T08:15:17;11.18;;;10.18;;
22254;SDS011;11296;42.684;23.322;2022-07-25T08:17:44;11.65;;;10.60;;
22254;SDS011;11296;42.684;23.322;2022-07-25T08:20:11;10.27;;;9.27;;
22254;SDS011;11296;42.684;23.322;2022-07-25T08:22:42;9.93;;;9.05;;
22254;SDS011;11296;42.684;23.322;2022-07-25T08:25:12;10.45;;;9.55;;
22254;SDS011;11296;42.684;23.322;2022-07-25T08:27:39;11.77;;;10.57;;
22254;SDS011;11296;42.684;23.322;2022-07-25T08:30:05;10.18;;;9.27;;
22254;SDS011;11296;42.684;23.322;2022-07-25T08:32:32;11.50;;;10.13;;
22254;SDS011;11296;42.684;23.322;2022-07-25T08:34:59;11.05;;;9.98;;
22254;SDS011;11296;42.684;23.322;2022-07-25T08:37:28;10.50;;;9.50;;
22254;SDS011;11296;42.684;23.322;2022-07-25T08:39:54;9.85;;;8.93;;
22254;SDS011;11296;42.684;23.322;2022-07-25T08:42:19;9.88;;;8.88;;
22254;SDS011;11296;42.684;23.322;2022-07-25T08:44:54;11.02;;;10.02;;
22254;SDS011;11296;42.684;23.322;2022-07-25T08:47:22;11.10;;;9.85;;
22254;SDS011;11296;42.684;23.322;2022-07-25T08:49:48;11.00;;;10.02;;
22254;SDS011;11296;42.684;23.322;2022-07-25T08:52:14;11.00;;;9.82;;
22254;SDS011;11296;42.684;23.322;2022-07-25T08:54:40;11.38;;;10.38;;
22254;SDS011;11296;42.684;23.322;2022-07-25T08:57:07;10.90;;;9.80;;
22254;SDS011;11296;42.684;23.322;2022-07-25T08:59:33;10.48;;;9.57;;
22254;SDS011;11296;42.684;23.322;2022-07-25T09:01:59;10.40;;;9.48;;
22254;SDS011;11296;42.684;23.322;2022-07-25T09:04:28;10.25;;;9.38;;
22254;SDS011;11296;42.684;23.322;2022-07-25T09:06:54;10.35;;;9.55;;
22254;SDS011;11296;42.684;23.322;2022-07-25T09:09:30;10.68;;;9.70;;
22254;SDS011;11296;42.684;23.322;2022-07-25T09:11:57;9.68;;;8.80;;
22254;SDS011;11296;42.684;23.322;2022-07-25T09:14:23;10.65;;;9.65;;
22254;SDS011;11296;42.684;23.322;2022-07-25T09:16:48;10.35;;;9.45;;
22254;SDS011;11296;42.684;23.322;2022-07-25T09:19:18;10.57;;;9.65;;
22254;SDS011;11296;42.684;23.322;2022-07-25T09:22:07;10.43;;;9.52;;
22254;SDS011;11296;42.684;23.322;2022-07-25T09:24:35;10.20;;;9.30;;
22254;SDS011;11296;42.684;23.322;2022-07-25T09:27:09;10.43;;;9.52;;
22254;SDS011;11296;42.684;23.322;2022-07-25T09:29:36;10.02;;;9.15;;
22254;SDS011;11296;42.684;23.322;2022-07-25T09:32:17;10.90;;;9.88;;
22254;SDS011;11296;42.684;23.322;2022-07-25T09:34:44;10.07;;;9.27;;
22254;SDS011;11296;42.684;23.322;2022-07-25T09:37:12;11.85;;;8.90;;
22254;SDS011;11296;42.684;23.322;2022-07-25T09:42:24;10.50;;;9.60;;
22254;SDS011;11296;42.684;23.322;2022-07-25T09:45:05;10.70;;;9.80;;
22254;SDS011;11296;42.684;23.322;2022-07-25T09:47:52;9.70;;;8.98;;
22254;SDS011;11296;42.684;23.322;2022-07-25T09:50:23;9.93;;;8.90;;
22254;SDS011;11296;42.684;23.322;2022-07-25T09:52:53;9.25;;;8.48;;
22254;SDS011;11296;42.684;23.322;2022-07-25T09:55:22;10.00;;;9.00;;
22254;SDS011;11296;42.684;23.322;2022-07-25T09:57:48;9.32;;;8.38;;
22254;SDS011;11296;42.684;23.322;2022-07-25T10:00:20;9.10;;;8.40;;
22254;SDS011;11296;42.684;23.322;2022-07-25T10:07:53;9.75;;;8.85;;
22254;SDS011;11296;42.684;23.322;2022-07-25T10:10:27;9.25;;;8.45;;
22254;SDS011;11296;42.684;23.322;2022-07-25T10:13:03;9.05;;;8.35;;
22254;SDS011;11296;42.684;23.322;2022-07-25T10:15:48;9.95;;;9.10;;
22254;SDS011;11296;42.684;23.322;2022-07-25T10:18:18;9.70;;;8.80;;
22254;SDS011;11296;42.684;23.322;2022-07-25T10:20:46;9.77;;;8.98;;
22254;SDS011;11296;42.684;23.322;2022-07-25T10:26:09;9.63;;;8.68;;
22254;SDS011;11296;42.684;23.322;2022-07-25T10:28:35;10.05;;;9.02;;
22254;SDS011;11296;42.684;23.322;2022-07-25T10:31:22;9.18;;;8.32;;
22254;SDS011;11296;42.684;23.322;2022-07-25T10:34:02;9.40;;;8.70;;
22254;SDS011;11296;42.684;23.322;2022-07-25T10:36:45;9.68;;;8.88;;
22254;SDS011;11296;42.684;23.322;2022-07-25T10:39:15;10.52;;;9.18;;
22254;SDS011;11296;42.684;23.322;2022-07-25T10:41:48;9.23;;;8.45;;
22254;SDS011;11296;42.684;23.322;2022-07-25T10:44:18;8.38;;;7.78;;
22254;SDS011;11296;42.684;23.322;2022-07-25T10:46:43;8.68;;;7.88;;
22254;SDS011;11296;42.684;23.322;2022-07-25T10:49:22;9.52;;;8.73;;
22254;SDS011;11296;42.684;23.322;2022-07-25T10:51:55;9.50;;;8.70;;
22254;SDS011;11296;42.684;23.322;2022-07-25T10:54:22;9.02;;;8.27;;
22254;SDS011;11296;42.684;23.322;2022-07-25T10:56:56;9.77;;;8.80;;
22254;SDS011;11296;42.684;23.322;2022-07-25T10:59:26;13.18;;;11.90;;
22254;SDS011;11296;42.684;23.322;2022-07-25T11:01:55;9.80;;;9.00;;
22254;SDS011;11296;42.684;23.322;2022-07-25T11:04:21;8.90;;;8.10;;
22254;SDS011;11296;42.684;23.322;2022-07-25T11:06:48;8.75;;;8.05;;
22254;SDS011;11296;42.684;23.322;2022-07-25T11:09:15;8.48;;;7.78;;
22254;SDS011;11296;42.684;23.322;2022-07-25T11:11:46;7.55;;;6.95;;
22254;SDS011;11296;42.684;23.322;2022-07-25T11:14:16;8.18;;;7.43;;
22254;SDS011;11296;42.684;23.322;2022-07-25T11:17:09;8.00;;;7.40;;
22254;SDS011;11296;42.684;23.322;2022-07-25T11:22:34;8.55;;;7.75;;
22254;SDS011;11296;42.684;23.322;2022-07-25T11:25:00;8.90;;;8.20;;
22254;SDS011;11296;42.684;23.322;2022-07-25T11:27:29;9.10;;;8.30;;
22254;SDS011;11296;42.684;23.322;2022-07-25T11:30:09;8.80;;;8.05;;
22254;SDS011;11296;42.684;23.322;2022-07-25T11:32:43;8.75;;;8.05;;
22254;SDS011;11296;42.684;23.322;2022-07-25T11:35:13;8.88;;;8.10;;
22254;SDS011;11296;42.684;23.322;2022-07-25T11:37:44;8.55;;;7.85;;
22254;SDS011;11296;42.684;23.322;2022-07-25T11:40:13;9.15;;;8.45;;
22254;SDS011;11296;42.684;23.322;2022-07-25T11:42:44;12.13;;;10.82;;
22254;SDS011;11296;42.684;23.322;2022-07-25T11:45:28;8.15;;;7.53;;
22254;SDS011;11296;42.684;23.322;2022-07-25T11:48:15;8.63;;;7.82;;
22254;SDS011;11296;42.684;23.322;2022-07-25T11:50:43;8.52;;;7.70;;
22254;SDS011;11296;42.684;23.322;2022-07-25T11:53:12;9.38;;;8.68;;
22254;SDS011;11296;42.684;23.322;2022-07-25T11:55:42;8.07;;;7.38;;
22254;SDS011;11296;42.684;23.322;2022-07-25T11:58:10;8.60;;;7.90;;
22254;SDS011;11296;42.684;23.322;2022-07-25T12:00:38;8.20;;;7.50;;
22254;SDS011;11296;42.684;23.322;2022-07-25T12:03:06;8.30;;;7.50;;
22254;SDS011;11296;42.684;23.322;2022-07-25T12:05:36;8.60;;;7.97;;
22254;SDS011;11296;42.684;23.322;2022-07-25T12:08:12;8.52;;;7.93;;
22254;SDS011;11296;42.684;23.322;2022-07-25T12:10:45;8.75;;;8.15;;
22254;SDS011;11296;42.684;23.322;2022-07-25T12:13:28;8.35;;;7.68;;
22254;SDS011;11296;42.684;23.322;2022-07-25T12:15:55;8.73;;;8.02;;
22254;SDS011;11296;42.684;23.322;2022-07-25T12:18:23;9.50;;;8.68;;
22254;SDS011;11296;42.684;23.322;2022-07-25T12:20:49;9.27;;;8.48;;
22254;SDS011;11296;42.684;23.322;2022-07-25T12:23:17;9.30;;;8.60;;
22254;SDS011;11296;42.684;23.322;2022-07-25T12:25:43;9.90;;;9.00;;
22254;SDS011;11296;42.684;23.322;2022-07-25T12:28:11;10.23;;;9.43;;
22254;SDS011;11296;42.684;23.322;2022-07-25T12:30:37;10.57;;;9.57;;
22254;SDS011;11296;42.684;23.322;2022-07-25T12:33:04;10.82;;;10.02;;
22254;SDS011;11296;42.684;23.322;2022-07-25T12:35:33;10.20;;;9.40;;
22254;SDS011;11296;42.684;23.322;2022-07-25T12:38:01;10.45;;;9.70;;
22254;SDS011;11296;42.684;23.322;2022-07-25T12:40:27;10.38;;;9.57;;
22254;SDS011;11296;42.684;23.322;2022-07-25T12:42:53;10.77;;;9.80;;
22254;SDS011;11296;42.684;23.322;2022-07-25T12:45:21;9.90;;;9.27;;
22254;SDS011;11296;42.684;23.322;2022-07-25T12:47:56;10.00;;;9.27;;
22254;SDS011;11296;42.684;23.322;2022-07-25T12:50:22;10.52;;;9.63;;
22254;SDS011;11296;42.684;23.322;2022-07-25T12:52:50;10.43;;;9.65;;
22254;SDS011;11296;42.684;23.322;2022-07-25T12:55:18;10.40;;;9.57;;
22254;SDS011;11296;42.684;23.322;2022-07-25T12:57:49;10.30;;;9.60;;
22254;SDS011;11296;42.684;23.322;2022-07-25T13:00:21;10.32;;;9.55;;
22254;SDS011;11296;42.684;23.322;2022-07-25T13:02:50;10.60;;;9.80;;
22254;SDS011;11296;42.684;23.322;2022-07-25T13:05:17;10.48;;;9.70;;
22254;SDS011;11296;42.684;23.322;2022-07-25T13:07:44;10.20;;;9.50;;
22254;SDS011;11296;42.684;23.322;2022-07-25T13:10:09;10.60;;;9.80;;
22254;SDS011;11296;42.684;23.322;2022-07-25T13:12:36;10.82;;;10.10;;
22254;SDS011;11296;42.684;23.322;2022-07-25T13:15:02;10.32;;;9.52;;
22254;SDS011;11296;42.684;23.322;2022-07-25T13:17:29;10.45;;;9.63;;
22254;SDS011;11296;42.684;23.322;2022-07-25T13:19:56;10.38;;;9.57;;
22254;SDS011;11296;42.684;23.322;2022-07-25T13:22:23;10.68;;;9.98;;
22254;SDS011;11296;42.684;23.322;2022-07-25T13:24:50;10.00;;;9.30;;
22254;SDS011;11296;42.684;23.322;2022-07-25T13:27:16;10.15;;;9.45;;
22254;SDS011;11296;42.684;23.322;2022-07-25T13:29:42;10.32;;;9.55;;
22254;SDS011;11296;42.684;23.322;2022-07-25T13:32:08;10.65;;;9.85;;
22254;SDS011;11296;42.684;23.322;2022-07-25T13:34:34;10.48;;;9.68;;
22254;SDS011;11296;42.684;23.322;2022-07-25T13:37:00;10.48;;;9.77;;
22254;SDS011;11296;42.684;23.322;2022-07-25T13:39:25;10.40;;;9.68;;
22254;SDS011;11296;42.684;23.322;2022-07-25T13:41:51;10.23;;;9.60;;
22254;SDS011;11296;42.684;23.322;2022-07-25T13:44:17;10.45;;;9.63;;
22254;SDS011;11296;42.684;23.322;2022-07-25T13:46:43;9.85;;;9.15;;
22254;SDS011;11296;42.684;23.322;2022-07-25T13:49:13;10.73;;;10.02;;
22254;SDS011;11296;42.684;23.322;2022-07-25T13:51:39;9.32;;;8.63;;
22254;SDS011;11296;42.684;23.322;2022-07-25T13:54:05;10.10;;;9.40;;
22254;SDS011;11296;42.684;23.322;2022-07-25T13:56:31;10.02;;;9.25;;
22254;SDS011;11296;42.684;23.322;2022-07-25T13:58:57;9.77;;;9.05;;
22254;SDS011;11296;42.684;23.322;2022-07-25T14:01:25;10.90;;;10.07;;
22254;SDS011;11296;42.684;23.322;2022-07-25T14:03:53;9.75;;;9.05;;
22254;SDS011;11296;42.684;23.322;2022-07-25T14:06:19;9.75;;;8.95;;
22254;SDS011;11296;42.684;23.322;2022-07-25T14:08:44;10.77;;;9.88;;
22254;SDS011;11296;42.684;23.322;2022-07-25T14:11:10;10.20;;;9.40;;
22254;SDS011;11296;42.684;23.322;2022-07-25T14:13:36;9.52;;;8.93;;
22254;SDS011;11296;42.684;23.322;2022-07-25T14:16:02;10.18;;;9.38;;
22254;SDS011;11296;42.684;23.322;2022-07-25T14:18:31;10.38;;;9.68;;
22254;SDS011;11296;42.684;23.322;2022-07-25T14:20:57;9.25;;;8.68;;
22254;SDS011;11296;42.684;23.322;2022-07-25T14:23:23;11.80;;;8.85;;
22254;SDS011;11296;42.684;23.322;2022-07-25T14:25:49;9.50;;;8.80;;
22254;SDS011;11296;42.684;23.322;2022-07-25T14:28:19;9.80;;;9.00;;
22254;SDS011;11296;42.684;23.322;2022-07-25T14:30:47;9.82;;;9.02;;
22254;SDS011;11296;42.684;23.322;2022-07-25T14:33:13;9.88;;;9.18;;
22254;SDS011;11296;42.684;23.322;2022-07-25T14:35:38;9.85;;;9.15;;